Time;durP1;ratioP1;P1;durP2;ratioP2;P2;SDS_P1;SDS_P2;PMS_P1;PMS_P2;Temp;Humidity;BMP_temperature;BMP_pressure;BME280_temperature;BME280_humidity;BME280_pressure;Samples;Min_cycle;Max_cycle;Signal;HPM_P1;HPM_P2
2021/12/05 00:17:53;;;;;;;516.17;497.87;;;4.30;99.90;;;;;;5014422;28;20452;-83
2021/12/05 00:23:13;;;;;;;536.07;515.43;;;4.20;99.90;;;;;;5016928;28;20817;-83
2021/12/05 00:25:44;;;;;;;566.17;544.47;;;4.20;99.90;;;;;;5017986;28;20457;-83
2021/12/05 00:28:37;;;;;;;560.03;538.17;;;4.10;99.90;;;;;;5017778;28;20477;-82
2021/12/05 00:31:19;;;;;;;540.10;519.10;;;4.20;99.90;;;;;;5026535;28;20462;-83
2021/12/05 00:34:07;;;;;;;510.03;491.10;;;4.30;99.90;;;;;;5038166;28;20490;-83
2021/12/05 00:47:56;;;;;;;500.67;481.87;;;4.10;99.90;;;;;;5003424;28;20467;-83
2021/12/05 00:53:42;;;;;;;494.30;476.77;;;4.00;99.90;;;;;;5023044;28;21018;-83
2021/12/05 00:56:19;;;;;;;491.60;474.03;;;4.00;99.90;;;;;;5038911;28;20505;-83
2021/12/05 00:59:14;;;;;;;483.33;465.97;;;4.10;99.90;;;;;;5038365;28;20988;-82
2021/12/05 01:02:10;;;;;;;512.63;493.93;;;4.20;99.90;;;;;;5037670;28;20452;-84
2021/12/05 01:04:58;;;;;;;513.00;493.70;;;4.10;99.90;;;;;;5036190;28;20456;-83
2021/12/05 01:07:56;;;;;;;484.83;466.47;;;4.20;99.90;;;;;;5038981;28;20483;-83
2021/12/05 01:10:47;;;;;;;431.53;416.37;;;4.40;99.90;;;;;;5051868;28;20960;-82
2021/12/05 01:13:31;;;;;;;331.80;320.70;;;4.40;99.90;;;;;;5037395;28;20897;-83
2021/12/05 01:16:01;;;;;;;330.87;319.53;;;4.40;99.90;;;;;;5037563;28;20487;-82
2021/12/05 01:18:28;;;;;;;280.00;271.17;;;4.40;99.90;;;;;;5036725;28;20472;-82
2021/12/05 01:21:03;;;;;;;252.47;244.07;;;4.40;99.90;;;;;;5036461;28;20471;-83
2021/12/05 01:23:36;;;;;;;287.53;277.90;;;4.30;99.90;;;;;;5036675;28;20953;-83
2021/12/05 01:26:06;;;;;;;296.07;286.70;;;4.30;99.90;;;;;;5036074;28;20831;-83
2021/12/05 01:28:50;;;;;;;353.47;340.87;;;4.20;99.90;;;;;;5037011;28;20476;-83
2021/12/05 01:31:27;;;;;;;390.03;377.43;;;4.20;99.90;;;;;;5036253;28;20452;-83
2021/12/05 01:34:00;;;;;;;388.73;375.77;;;4.20;99.90;;;;;;5036113;28;20570;-83
2021/12/05 01:36:33;;;;;;;412.57;398.37;;;4.20;99.90;;;;;;5031781;28;20456;-83
2021/12/05 01:39:10;;;;;;;370.10;358.03;;;4.20;99.90;;;;;;5026444;28;20535;-83
2021/12/05 01:42:25;;;;;;;371.77;358.43;;;4.20;99.90;;;;;;5018127;28;20964;-83
2021/12/05 01:45:21;;;;;;;303.73;293.93;;;4.20;99.90;;;;;;5031153;28;20449;-82
2021/12/05 01:53:39;;;;;;;239.10;231.13;;;4.40;99.90;;;;;;5036723;28;20475;-82
2021/12/05 01:56:33;;;;;;;269.37;259.57;;;4.40;99.90;;;;;;5038763;28;20456;-82
2021/12/05 01:59:12;;;;;;;232.50;224.53;;;4.40;99.90;;;;;;5036713;28;20483;-82
2021/12/05 02:16:04;;;;;;;343.07;331.33;;;4.20;99.90;;;;;;4997846;28;20441;-83
2021/12/05 02:38:15;;;;;;;323.10;311.97;;;4.30;99.90;;;;;;5033423;28;20475;-82
2021/12/05 02:40:54;;;;;;;299.67;289.90;;;4.20;99.90;;;;;;5038804;28;20448;-83
2021/12/05 02:43:26;;;;;;;276.63;267.00;;;4.30;99.90;;;;;;5039112;28;20808;-83
2021/12/05 02:45:57;;;;;;;256.40;248.00;;;4.30;99.90;;;;;;5038649;28;20881;-82
2021/12/05 02:48:26;;;;;;;270.37;260.83;;;4.20;99.90;;;;;;5039533;28;20464;-82
2021/12/05 02:50:53;;;;;;;270.60;261.60;;;4.30;99.90;;;;;;5039709;28;20484;-83
2021/12/05 02:53:32;;;;;;;271.47;262.83;;;4.20;99.90;;;;;;5039484;28;20488;-83
2021/12/05 02:55:59;;;;;;;265.97;256.87;;;4.20;99.90;;;;;;5039788;28;20464;-82
2021/12/05 02:58:31;;;;;;;247.60;239.50;;;4.00;99.90;;;;;;5039389;28;20472;-83
2021/12/05 03:01:10;;;;;;;233.90;226.17;;;4.00;99.90;;;;;;5039346;28;20462;-82
2021/12/05 03:03:38;;;;;;;250.27;241.90;;;4.10;99.90;;;;;;5039837;28;20520;-82
2021/12/05 03:06:12;;;;;;;247.53;239.60;;;4.00;99.90;;;;;;5038656;28;20968;-82
2021/12/05 03:08:41;;;;;;;246.17;238.37;;;3.90;99.90;;;;;;5039406;28;20476;-82
2021/12/05 03:11:08;;;;;;;235.43;226.83;;;3.90;99.90;;;;;;5039154;28;20468;-82
2021/12/05 03:13:36;;;;;;;244.83;235.83;;;3.90;99.90;;;;;;5039306;28;20851;-82
2021/12/05 03:16:03;;;;;;;259.00;250.60;;;3.90;99.90;;;;;;5039180;28;20545;-83
2021/12/05 03:18:30;;;;;;;265.90;256.27;;;3.90;99.90;;;;;;5039368;28;20475;-83
2021/12/05 03:20:58;;;;;;;280.70;271.00;;;3.80;99.90;;;;;;5039892;28;20453;-83
2021/12/05 03:23:25;;;;;;;285.60;275.77;;;3.70;99.90;;;;;;5039449;28;20944;-83
2021/12/05 03:25:54;;;;;;;283.20;273.80;;;3.70;99.90;;;;;;5038885;28;20463;-82
2021/12/05 03:28:20;;;;;;;290.73;280.73;;;3.70;99.90;;;;;;5038931;28;20483;-83
2021/12/05 03:30:47;;;;;;;295.70;286.27;;;3.70;99.90;;;;;;5038992;28;20457;-83
2021/12/05 03:33:14;;;;;;;292.67;282.13;;;3.70;99.90;;;;;;5038923;28;20460;-83
2021/12/05 03:35:41;;;;;;;322.93;312.13;;;3.70;99.90;;;;;;5038656;28;20459;-83
2021/12/05 03:38:08;;;;;;;364.73;352.43;;;3.60;99.90;;;;;;5023222;28;20474;-83
2021/12/05 03:40:36;;;;;;;390.53;376.33;;;3.50;99.90;;;;;;5018188;28;20461;-83
2021/12/05 03:43:07;;;;;;;410.87;396.27;;;3.50;99.90;;;;;;5018298;28;20457;-82
2021/12/05 03:45:37;;;;;;;420.30;405.47;;;3.40;99.90;;;;;;5018375;28;20843;-83
2021/12/05 03:48:06;;;;;;;450.40;434.03;;;3.30;99.90;;;;;;5020496;28;20861;-84
2021/12/05 03:50:34;;;;;;;434.50;419.30;;;3.20;99.90;;;;;;5017053;28;20452;-83
2021/12/05 03:53:00;;;;;;;479.13;461.90;;;3.20;99.90;;;;;;5018431;28;20464;-83
2021/12/05 03:55:28;;;;;;;538.23;517.33;;;3.20;99.90;;;;;;5020076;28;20480;-83
2021/12/05 03:57:55;;;;;;;541.20;520.70;;;3.10;99.90;;;;;;5017708;28;20612;-83
2021/12/05 04:00:26;;;;;;;566.17;543.97;;;3.00;99.90;;;;;;5017513;28;20460;-84
2021/12/05 04:02:56;;;;;;;605.23;580.13;;;2.90;99.90;;;;;;5017001;28;20456;-82
2021/12/05 04:05:24;;;;;;;636.90;610.23;;;2.80;99.90;;;;;;5017454;28;20967;-83
2021/12/05 04:07:51;;;;;;;669.30;640.30;;;2.80;99.90;;;;;;5019197;28;20487;-83
2021/12/05 04:10:18;;;;;;;649.47;621.90;;;2.80;99.90;;;;;;5048383;28;20466;-84
2021/12/05 04:12:45;;;;;;;673.73;645.03;;;2.70;99.90;;;;;;5039330;28;20448;-77
2021/12/05 04:15:14;;;;;;;699.87;666.23;;;2.60;99.90;;;;;;5035191;28;20476;-83
2021/12/05 04:17:42;;;;;;;656.33;627.77;;;2.60;99.90;;;;;;5032017;28;20477;-83
2021/12/05 04:20:12;;;;;;;622.83;595.00;;;2.60;99.90;;;;;;5021262;28;20453;-83
2021/12/05 04:22:39;;;;;;;579.43;556.50;;;2.80;99.90;;;;;;5022187;28;20461;-83
2021/12/05 04:25:09;;;;;;;521.63;501.50;;;2.90;99.90;;;;;;5021212;28;20459;-83
2021/12/05 04:27:37;;;;;;;554.07;531.60;;;2.90;99.90;;;;;;5022032;28;20478;-84
2021/12/05 04:30:05;;;;;;;539.07;517.97;;;2.90;99.90;;;;;;5021720;28;20453;-83
2021/12/05 04:32:31;;;;;;;519.83;499.63;;;3.00;99.90;;;;;;5022233;28;20449;-85
2021/12/05 04:35:00;;;;;;;512.23;492.43;;;2.90;99.90;;;;;;5029171;28;20464;-84
2021/12/05 04:37:27;;;;;;;503.63;484.67;;;2.90;99.90;;;;;;5031853;28;20487;-84
2021/12/05 04:39:54;;;;;;;496.00;477.40;;;2.90;99.90;;;;;;5022681;28;20457;-83
2021/12/05 04:42:21;;;;;;;527.47;506.47;;;2.80;99.90;;;;;;5021623;28;20567;-83
2021/12/05 04:44:47;;;;;;;561.00;538.83;;;2.70;99.90;;;;;;5024094;28;20487;-84
2021/12/05 04:47:14;;;;;;;607.60;581.67;;;2.70;99.90;;;;;;5024017;28;20492;-82
2021/12/05 04:49:42;;;;;;;622.47;595.53;;;2.60;99.90;;;;;;5023637;28;20453;-83
2021/12/05 04:52:11;;;;;;;627.60;600.27;;;2.70;99.90;;;;;;5022588;28;20456;-83
2021/12/05 04:54:38;;;;;;;624.07;596.27;;;2.60;99.90;;;;;;5022788;28;20488;-84
2021/12/05 04:57:05;;;;;;;590.77;565.37;;;2.60;99.90;;;;;;5023301;28;20497;-83
2021/12/05 04:59:35;;;;;;;545.30;522.30;;;2.60;99.90;;;;;;5024767;28;20457;-82
2021/12/05 05:02:03;;;;;;;497.80;477.77;;;2.80;99.90;;;;;;5024010;28;20511;-82
2021/12/05 05:04:36;;;;;;;480.70;462.40;;;2.80;99.90;;;;;;5022965;28;20500;-83
2021/12/05 05:07:07;;;;;;;439.73;423.20;;;2.80;99.90;;;;;;5022281;28;20528;-84
2021/12/05 05:09:35;;;;;;;427.10;411.70;;;2.90;99.90;;;;;;5018225;28;20888;-83
2021/12/05 05:12:02;;;;;;;405.83;391.73;;;2.80;99.90;;;;;;5016522;28;20453;-83
2021/12/05 05:14:28;;;;;;;384.73;371.63;;;2.60;99.90;;;;;;5018261;28;20481;-82
2021/12/05 05:16:55;;;;;;;426.90;411.87;;;2.20;99.90;;;;;;5017455;28;20457;-84
2021/12/05 05:19:26;;;;;;;569.17;547.23;;;2.00;99.90;;;;;;5020572;28;20880;-84
2021/12/05 05:22:02;;;;;;;663.50;634.93;;;1.80;99.90;;;;;;5022098;28;20453;-82
2021/12/05 05:30:34;;;;;;;833.17;784.13;;;1.30;99.90;;;;;;5019288;28;20521;-83
2021/12/05 05:44:40;;;;;;;841.67;786.27;;;1.40;99.90;;;;;;5016989;28;20448;-82
2021/12/05 05:47:10;;;;;;;842.20;785.10;;;1.40;99.90;;;;;;5016692;28;20473;-82
2021/12/05 05:49:50;;;;;;;842.80;784.60;;;1.40;99.90;;;;;;5017571;28;20476;-83
2021/12/05 05:52:18;;;;;;;841.83;782.97;;;1.40;99.90;;;;;;5014209;28;21166;-83
2021/12/05 05:54:47;;;;;;;837.97;777.43;;;1.40;99.90;;;;;;5014852;28;20485;-83
2021/12/05 05:57:21;;;;;;;831.43;770.87;;;1.40;99.90;;;;;;5013664;28;20477;-84
2021/12/05 05:59:59;;;;;;;830.73;771.03;;;1.60;99.90;;;;;;5014660;28;20464;-83
2021/12/05 06:05:12;;;;;;;816.73;764.50;;;1.90;99.90;;;;;;5037190;28;20463;-82
2021/12/05 06:07:43;;;;;;;795.50;744.10;;;2.10;99.90;;;;;;5040807;28;20477;-83
2021/12/05 06:10:11;;;;;;;731.13;690.03;;;2.30;99.90;;;;;;5040958;28;20518;-83
2021/12/05 06:12:38;;;;;;;679.97;644.03;;;2.50;99.90;;;;;;5041067;28;20501;-84
2021/12/05 06:15:08;;;;;;;598.37;568.93;;;2.70;99.90;;;;;;5039066;28;20988;-83
2021/12/05 06:17:35;;;;;;;552.70;528.07;;;2.70;99.90;;;;;;5042316;28;20515;-82
2021/12/05 06:20:02;;;;;;;512.67;491.40;;;2.80;99.90;;;;;;5043154;28;20487;-83
2021/12/05 06:22:29;;;;;;;442.67;425.77;;;2.90;99.90;;;;;;5037246;28;20458;-85
2021/12/05 06:24:56;;;;;;;422.77;404.57;;;3.20;99.90;;;;;;5040014;28;20449;-83
2021/12/05 06:27:23;;;;;;;361.13;347.63;;;3.20;99.90;;;;;;5041044;28;20476;-82
2021/12/05 06:29:55;;;;;;;376.53;362.47;;;3.30;99.90;;;;;;5040207;28;20448;-83
2021/12/05 06:36:47;;;;;;;292.33;281.73;;;3.30;99.90;;;;;;5040598;28;20870;-83
2021/12/05 06:38:12;;;;;;;322.17;310.93;;;2.90;99.90;;;;;;5020417;28;20848;-84
2021/12/05 06:40:58;;;;;;;317.57;306.80;;;2.80;99.90;;;;;;5013922;28;20864;-83
2021/12/05 06:46:13;;;;;;;441.33;426.10;;;2.40;99.90;;;;;;5013564;28;20503;-83
2021/12/05 06:48:43;;;;;;;535.43;515.33;;;2.30;99.90;;;;;;5013493;28;20477;-82
2021/12/05 06:51:11;;;;;;;530.63;510.53;;;2.20;99.90;;;;;;5014680;28;20949;-83
2021/12/05 06:53:38;;;;;;;570.67;548.27;;;2.30;99.90;;;;;;5014243;28;20519;-83
2021/12/05 06:56:05;;;;;;;553.87;532.17;;;2.30;99.90;;;;;;5028371;28;20543;-83
2021/12/05 06:58:32;;;;;;;581.40;557.30;;;2.40;99.90;;;;;;5034850;28;20473;-83
2021/12/05 07:01:00;;;;;;;542.57;520.60;;;2.40;99.90;;;;;;5035033;28;20878;-83
2021/12/05 07:03:26;;;;;;;515.40;495.13;;;2.50;99.90;;;;;;5035341;28;20479;-82
2021/12/05 07:05:58;;;;;;;434.80;418.77;;;2.60;99.90;;;;;;5034220;28;20452;-82
2021/12/05 07:08:30;;;;;;;368.00;355.07;;;2.70;99.90;;;;;;5036374;28;20464;-83
2021/12/05 07:11:03;;;;;;;356.70;344.30;;;2.80;99.90;;;;;;5045371;28;20495;-83
2021/12/05 07:16:31;;;;;;;370.43;357.70;;;2.90;99.90;;;;;;5036421;28;20818;-83
2021/12/05 07:22:13;;;;;;;356.10;343.70;;;2.90;99.90;;;;;;5036546;28;20508;-83
2021/12/05 07:24:48;;;;;;;334.73;323.03;;;2.90;99.90;;;;;;5035635;28;20487;-82
2021/12/05 07:41:18;;;;;;;349.23;337.27;;;3.10;99.90;;;;;;5039031;28;20447;-80
2021/12/05 07:43:47;;;;;;;353.93;341.27;;;3.20;99.90;;;;;;5026383;28;20456;-84
2021/12/05 07:46:17;;;;;;;327.87;316.87;;;3.20;99.90;;;;;;5036489;28;20447;-82
2021/12/05 07:48:49;;;;;;;317.07;306.43;;;3.20;99.90;;;;;;5034225;28;20473;-82
2021/12/05 07:51:25;;;;;;;312.17;301.90;;;3.30;99.90;;;;;;5019051;28;20801;-82
2021/12/05 07:54:04;;;;;;;293.43;283.83;;;3.20;99.90;;;;;;5018770;28;20896;-83
2021/12/05 07:56:38;;;;;;;284.30;275.20;;;3.30;99.90;;;;;;5018672;28;20578;-82
2021/12/05 07:59:18;;;;;;;301.10;291.00;;;3.30;99.90;;;;;;5019760;28;21003;-82
2021/12/05 08:15:42;;;;;;;445.03;428.43;;;3.30;99.90;;;;;;5036823;28;20714;-82
2021/12/05 08:18:18;;;;;;;458.70;441.53;;;3.30;99.90;;;;;;5018365;28;20535;-83
2021/12/05 08:20:51;;;;;;;497.20;477.33;;;3.20;99.90;;;;;;5017701;28;20456;-85
2021/12/05 08:23:18;;;;;;;528.00;506.43;;;3.30;99.90;;;;;;5015819;28;20457;-84
2021/12/05 08:25:54;;;;;;;547.10;525.30;;;3.20;99.90;;;;;;5016894;28;20444;-83
2021/12/05 08:28:36;;;;;;;557.10;534.43;;;3.20;99.90;;;;;;5017228;28;20584;-83
2021/12/05 08:31:13;;;;;;;617.70;590.07;;;3.20;99.90;;;;;;5015545;28;20960;-83
2021/12/05 08:33:53;;;;;;;657.83;625.77;;;3.30;99.90;;;;;;5016850;28;21023;-81
2021/12/05 08:39:44;;;;;;;;;;;;;;;;;;;;;
2021/12/05 08:45:21;;;;;;;598.37;570.97;;;3.50;99.90;;;;;;5021288;28;20447;-82
2021/12/05 09:27:11;;;;;;;677.93;643.57;;;4.00;99.90;;;;;;5003368;28;20482;-84
2021/12/05 09:30:03;;;;;;;720.30;680.80;;;3.90;99.90;;;;;;5035671;28;20952;-85
2021/12/05 10:03:09;;;;;;;725.67;685.67;;;4.50;99.90;;;;;;5033973;28;20805;-83
2021/12/05 10:08:49;;;;;;;711.97;675.17;;;4.60;99.90;;;;;;5034864;28;20518;-83
2021/12/05 10:11:37;;;;;;;717.07;679.87;;;4.70;99.90;;;;;;5032841;28;20460;-83
2021/12/05 10:14:24;;;;;;;691.67;657.67;;;4.80;99.90;;;;;;5052775;28;20458;-83
2021/12/05 10:17:07;;;;;;;681.50;648.47;;;4.90;99.90;;;;;;5052479;28;20509;-83
2021/12/05 10:33:47;;;;;;;659.57;629.57;;;4.90;99.90;;;;;;5012569;28;20439;-83
2021/12/05 10:36:30;;;;;;;664.77;634.30;;;4.90;99.90;;;;;;5012140;28;20539;-83
2021/12/05 10:39:04;;;;;;;652.07;622.67;;;4.90;99.90;;;;;;5030656;28;20467;-83
2021/12/05 10:42:10;;;;;;;653.87;624.80;;;4.90;99.90;;;;;;5033075;28;20956;-83
2021/12/05 10:44:53;;;;;;;667.30;636.30;;;4.90;99.90;;;;;;5032617;28;20452;-83
2021/12/05 10:47:46;;;;;;;653.00;623.53;;;5.10;99.90;;;;;;5028859;28;20475;-83
2021/12/05 10:50:51;;;;;;;672.13;640.57;;;5.00;99.90;;;;;;5032693;28;20828;-84
2021/12/05 10:53:41;;;;;;;;;;;;;;;;;;;;;
2021/12/05 10:56:33;;;;;;;;;;;;;;;;;;;;;
2021/12/05 10:59:06;;;;;;;670.73;639.13;;;5.20;99.90;;;;;;5027232;28;20567;-83
2021/12/05 11:02:27;;;;;;;682.50;648.27;;;5.10;99.90;;;;;;5034832;28;20555;-83
2021/12/05 11:04:54;;;;;;;671.07;638.37;;;5.30;99.90;;;;;;5034717;28;20449;-83
2021/12/05 11:07:23;;;;;;;645.30;615.90;;;5.40;99.90;;;;;;5032978;28;20478;-83
2021/12/05 11:09:52;;;;;;;615.40;588.30;;;5.40;99.90;;;;;;5032539;28;20526;-83
2021/12/05 11:12:23;;;;;;;616.83;590.37;;;5.50;99.90;;;;;;5031885;28;20437;-83
2021/12/05 11:14:52;;;;;;;625.23;598.33;;;5.60;99.90;;;;;;5032077;28;21056;-84
2021/12/05 11:17:21;;;;;;;600.07;574.73;;;5.80;99.90;;;;;;5031447;28;20515;-83
2021/12/05 11:19:49;;;;;;;554.20;532.20;;;5.90;99.90;;;;;;5032345;28;20460;-83
2021/12/05 11:22:19;;;;;;;534.20;513.77;;;6.00;99.90;;;;;;5031954;28;20859;-84
2021/12/05 11:24:50;;;;;;;371.63;359.20;;;6.20;99.90;;;;;;5031702;28;20448;-84
2021/12/05 11:27:26;;;;;;;338.60;327.43;;;6.30;99.90;;;;;;5031596;28;20480;-83
2021/12/05 11:30:05;;;;;;;288.70;279.30;;;6.40;99.90;;;;;;5031964;28;20462;-83
2021/12/05 11:32:37;;;;;;;252.30;244.00;;;6.50;99.90;;;;;;5033584;28;20448;-83
2021/12/05 11:35:21;;;;;;;166.17;160.37;;;6.70;99.90;;;;;;5033410;28;20459;-83
2021/12/05 11:38:01;;;;;;;64.93;62.47;;;6.90;99.90;;;;;;5025528;28;20480;-83
2021/12/05 11:40:31;;;;;;;35.43;33.73;;;7.10;99.90;;;;;;5013629;28;20449;-83
2021/12/05 11:43:02;;;;;;;30.20;28.80;;;7.40;99.90;;;;;;5014243;28;20968;-84
2021/12/05 11:45:32;;;;;;;24.47;23.33;;;7.40;98.60;;;;;;5013976;28;20499;-85
2021/12/05 11:47:59;;;;;;;7.90;7.10;;;7.60;96.10;;;;;;5012052;28;20470;-84
2021/12/05 11:50:36;;;;;;;10.90;10.13;;;7.70;95.10;;;;;;5011497;28;20747;-85
2021/12/05 11:53:04;;;;;;;9.17;8.47;;;8.00;93.00;;;;;;5014530;28;20820;-83
2021/12/05 11:55:33;;;;;;;5.37;4.60;;;8.10;92.70;;;;;;5015449;28;20488;-83
2021/12/05 11:58:02;;;;;;;3.93;2.50;;;8.10;86.60;;;;;;5016757;28;20477;-84
2021/12/05 12:00:30;;;;;;;5.67;3.80;;;8.00;84.00;;;;;;5015001;28;20456;-84
2021/12/05 12:02:57;;;;;;;4.50;2.07;;;8.00;83.40;;;;;;5013774;28;20536;-83
2021/12/05 12:05:26;;;;;;;3.73;2.30;;;8.20;85.30;;;;;;5012730;28;20457;-84
2021/12/05 12:08:00;;;;;;;6.17;2.10;;;8.20;81.10;;;;;;5012417;28;20472;-84
2021/12/05 12:10:29;;;;;;;3.60;2.10;;;8.60;84.90;;;;;;5012262;28;20492;-84
2021/12/05 12:12:59;;;;;;;4.17;2.13;;;8.40;81.70;;;;;;5013391;28;20455;-83
2021/12/05 12:15:28;;;;;;;4.40;2.43;;;8.20;79.40;;;;;;5016612;28;20480;-84
2021/12/05 12:18:04;;;;;;;5.17;2.73;;;8.40;80.30;;;;;;5016759;28;20469;-84
2021/12/05 12:20:33;;;;;;;5.77;1.57;;;8.40;76.60;;;;;;5015716;28;20563;-84
2021/12/05 12:23:00;;;;;;;5.90;2.80;;;8.00;76.10;;;;;;5015420;28;20464;-84
2021/12/05 12:25:31;;;;;;;7.83;2.23;;;7.80;77.70;;;;;;5015395;28;20460;-83
2021/12/05 12:27:58;;;;;;;4.20;1.90;;;8.30;80.00;;;;;;5016278;28;20484;-83
2021/12/05 12:30:30;;;;;;;5.10;1.90;;;8.50;74.60;;;;;;5018328;28;20452;-83
2021/12/05 12:33:05;;;;;;;4.13;2.07;;;8.80;72.30;;;;;;5027681;28;20452;-83
2021/12/05 12:35:33;;;;;;;4.50;1.70;;;8.70;70.80;;;;;;5039472;28;20484;-82
2021/12/05 12:38:06;;;;;;;4.53;1.97;;;9.30;68.60;;;;;;5037548;28;20472;-82
2021/12/05 12:40:53;;;;;;;7.60;2.10;;;9.30;67.20;;;;;;5046189;28;20447;-82
2021/12/05 12:43:48;;;;;;;6.00;1.37;;;9.20;65.60;;;;;;5059065;28;20447;-82
2021/12/05 12:46:27;;;;;;;5.63;1.60;;;8.90;68.80;;;;;;5056887;28;20446;-84
2021/12/05 12:49:21;;;;;;;5.73;1.53;;;8.80;67.00;;;;;;5056590;28;20474;-82
2021/12/05 12:51:58;;;;;;;4.70;1.50;;;8.80;71.60;;;;;;5058679;28;20479;-82
2021/12/05 12:54:27;;;;;;;4.93;1.77;;;9.00;69.20;;;;;;5058332;28;20442;-82
2021/12/05 12:57:08;;;;;;;5.83;1.67;;;9.30;65.90;;;;;;5056173;28;20471;-82
2021/12/05 12:59:38;;;;;;;4.57;1.87;;;9.00;65.40;;;;;;5056284;28;20951;-82
2021/12/05 13:02:29;;;;;;;4.73;1.60;;;8.50;67.70;;;;;;5055324;28;20543;-82
2021/12/05 13:10:36;;;;;;;4.37;1.47;;;7.70;76.00;;;;;;5035347;28;20609;-82
2021/12/05 13:13:06;;;;;;;4.10;1.60;;;7.40;76.90;;;;;;5035790;28;20454;-83
2021/12/05 13:15:37;;;;;;;3.87;1.60;;;7.40;79.70;;;;;;5035702;28;20463;-82
2021/12/05 13:18:23;;;;;;;4.40;1.50;;;7.30;80.00;;;;;;5035940;28;20472;-82
2021/12/05 13:20:54;;;;;;;7.73;1.90;;;7.30;78.70;;;;;;5034443;28;20980;-82
2021/12/05 13:23:31;;;;;;;5.40;1.77;;;7.20;81.40;;;;;;5034301;28;20459;-82
2021/12/05 13:26:04;;;;;;;5.17;1.90;;;7.30;81.30;;;;;;5035884;28;20479;-82
2021/12/05 13:28:34;;;;;;;3.87;2.10;;;7.30;84.80;;;;;;5036117;28;20479;-82
2021/12/05 13:31:21;;;;;;;5.10;1.97;;;7.20;83.30;;;;;;5036749;28;20822;-82
2021/12/05 13:33:48;;;;;;;4.73;2.00;;;7.10;82.20;;;;;;5038418;28;20455;-82
2021/12/05 13:36:36;;;;;;;4.37;2.17;;;7.10;81.60;;;;;;5036998;28;20504;-82
2021/12/05 13:39:24;;;;;;;3.97;1.77;;;7.20;85.10;;;;;;5039110;28;20468;-82
2021/12/05 13:42:05;;;;;;;6.30;2.30;;;7.20;82.00;;;;;;5038806;28;21168;-83
2021/12/05 13:45:08;;;;;;;4.50;2.10;;;7.00;79.50;;;;;;5035640;28;20825;-82
2021/12/05 13:48:07;;;;;;;5.07;2.97;;;7.00;80.60;;;;;;5021552;28;20535;-82
2021/12/05 13:50:37;;;;;;;6.20;2.87;;;7.00;82.10;;;;;;5035738;28;20459;-82
2021/12/05 13:53:36;;;;;;;5.40;2.80;;;6.90;84.00;;;;;;5021142;28;20453;-82
2021/12/05 13:56:10;;;;;;;5.83;2.50;;;6.90;83.90;;;;;;5014103;28;20481;-82
2021/12/05 13:58:40;;;;;;;5.57;2.53;;;6.90;85.50;;;;;;5014409;28;20480;-82
2021/12/05 14:01:11;;;;;;;4.40;3.13;;;6.90;85.90;;;;;;5025624;28;20539;-81
2021/12/05 14:04:00;;;;;;;7.97;4.10;;;6.90;88.60;;;;;;5035169;28;20488;-83
2021/12/05 14:06:53;;;;;;;5.50;3.30;;;7.00;87.70;;;;;;5036219;28;20463;-82
2021/12/05 14:09:24;;;;;;;5.37;3.50;;;6.90;86.30;;;;;;5034895;28;20452;-83
2021/12/05 14:11:56;;;;;;;11.63;3.80;;;7.00;87.00;;;;;;5034851;28;20448;-82
2021/12/05 14:14:27;;;;;;;5.23;3.10;;;6.90;85.70;;;;;;5034195;28;20449;-83
2021/12/05 14:16:56;;;;;;;8.10;2.60;;;6.90;87.70;;;;;;5033377;28;20487;-83
2021/12/05 14:19:27;;;;;;;7.60;3.77;;;6.90;86.50;;;;;;5033723;28;20870;-83
2021/12/05 14:21:57;;;;;;;5.97;3.33;;;6.80;88.30;;;;;;5033658;28;20963;-82
2021/12/05 14:24:27;;;;;;;7.30;3.90;;;6.70;88.60;;;;;;5035168;28;20459;-82
2021/12/05 14:26:57;;;;;;;6.13;3.17;;;6.60;89.10;;;;;;5033641;28;20820;-82
2021/12/05 14:29:27;;;;;;;6.13;3.10;;;6.50;88.20;;;;;;5034045;28;20476;-82
2021/12/05 14:31:57;;;;;;;7.17;2.63;;;6.50;90.00;;;;;;5036537;28;20459;-83
2021/12/05 14:34:24;;;;;;;4.03;2.40;;;6.40;85.10;;;;;;5034142;28;20810;-83
2021/12/05 14:36:54;;;;;;;5.53;2.33;;;6.50;85.10;;;;;;5033080;28;20479;-82
2021/12/05 14:39:25;;;;;;;4.70;2.07;;;6.40;86.80;;;;;;5038024;28;20448;-82
2021/12/05 14:41:56;;;;;;;4.97;2.60;;;6.30;88.00;;;;;;5035727;28;20543;-83
2021/12/05 14:44:23;;;;;;;4.90;3.20;;;6.30;88.90;;;;;;5033744;28;20944;-83
2021/12/05 14:46:55;;;;;;;5.20;4.70;;;6.30;90.00;;;;;;5034008;28;20459;-82
2021/12/05 14:49:24;;;;;;;12.80;9.50;;;6.20;90.00;;;;;;5035439;28;20452;-82
2021/12/05 14:51:52;;;;;;;15.90;13.00;;;6.20;88.30;;;;;;5035913;28;20452;-82
2021/12/05 14:54:24;;;;;;;13.87;12.80;;;6.00;92.00;;;;;;5033934;28;20460;-82
2021/12/05 14:56:52;;;;;;;28.70;27.10;;;5.90;94.20;;;;;;5034232;28;20476;-82
2021/12/05 14:59:20;;;;;;;21.60;20.30;;;5.80;97.30;;;;;;5035846;28;20463;-82
2021/12/05 15:01:53;;;;;;;27.57;25.97;;;5.60;96.50;;;;;;5033073;28;20456;-82
2021/12/05 15:04:25;;;;;;;29.43;27.47;;;5.60;97.60;;;;;;5033649;28;20510;-83
2021/12/05 15:06:52;;;;;;;51.70;49.67;;;5.50;98.40;;;;;;5035014;28;20448;-82
2021/12/05 15:09:27;;;;;;;107.07;103.47;;;5.40;99.70;;;;;;5033749;28;20448;-82
2021/12/05 15:11:56;;;;;;;125.87;121.80;;;5.40;99.90;;;;;;5034143;28;20463;-82
2021/12/05 15:14:25;;;;;;;170.40;164.87;;;5.40;99.90;;;;;;5033716;28;20448;-83
2021/12/05 15:16:54;;;;;;;252.50;244.70;;;5.30;99.90;;;;;;5032680;28;20483;-81
2021/12/05 15:19:21;;;;;;;275.33;266.83;;;5.30;99.90;;;;;;5034140;28;20455;-83
2021/12/05 15:21:48;;;;;;;349.60;338.30;;;5.20;99.90;;;;;;5034885;28;20453;-82
2021/12/05 15:24:16;;;;;;;329.30;318.90;;;5.20;99.90;;;;;;5034957;28;20453;-82
2021/12/05 15:26:44;;;;;;;330.17;319.77;;;5.10;99.90;;;;;;5033753;28;20456;-81
2021/12/05 15:29:10;;;;;;;382.37;369.87;;;5.10;99.90;;;;;;5034568;28;20479;-82
2021/12/05 15:31:43;;;;;;;357.57;346.17;;;5.10;99.90;;;;;;5034731;28;20459;-83
2021/12/05 15:34:21;;;;;;;357.97;346.33;;;5.00;99.90;;;;;;5033592;28;20455;-82
2021/12/05 15:36:49;;;;;;;435.17;420.17;;;4.90;99.90;;;;;;5035116;28;20498;-83
2021/12/05 15:39:23;;;;;;;490.57;472.40;;;4.90;99.90;;;;;;5035562;28;20448;-82
2021/12/05 15:41:51;;;;;;;518.70;498.70;;;4.90;99.90;;;;;;5034300;28;20449;-82
2021/12/05 15:44:33;;;;;;;574.07;550.80;;;4.80;99.90;;;;;;5034260;28;20452;-82
2021/12/05 15:47:05;;;;;;;578.30;554.40;;;4.70;99.90;;;;;;5034278;28;20455;-83
2021/12/05 15:49:50;;;;;;;599.17;574.10;;;4.70;99.90;;;;;;5040180;28;20459;-84
2021/12/05 15:52:17;;;;;;;622.70;595.90;;;4.70;99.90;;;;;;5038335;28;20455;-83
2021/12/05 15:54:45;;;;;;;625.67;598.50;;;4.60;99.90;;;;;;5039296;28;20448;-83
2021/12/05 15:57:16;;;;;;;667.17;636.23;;;4.60;99.90;;;;;;5039995;28;20491;-83
2021/12/05 15:59:46;;;;;;;698.37;664.73;;;4.50;99.90;;;;;;5040960;28;20460;-83
2021/12/05 16:02:17;;;;;;;725.10;689.10;;;4.50;99.90;;;;;;5040243;28;20546;-83
2021/12/05 16:04:45;;;;;;;727.10;690.97;;;4.50;99.90;;;;;;5041481;28;20490;-83
2021/12/05 16:07:19;;;;;;;709.03;674.17;;;4.50;99.90;;;;;;5041589;28;21011;-83
2021/12/05 16:10:11;;;;;;;735.10;698.00;;;4.30;99.90;;;;;;5042138;28;20458;-83
2021/12/05 16:12:46;;;;;;;763.77;724.17;;;4.40;99.90;;;;;;5040821;28;20452;-83
2021/12/05 16:15:14;;;;;;;764.87;724.27;;;4.40;99.90;;;;;;5040780;28;20482;-83
2021/12/05 16:17:55;;;;;;;773.60;732.43;;;4.30;99.90;;;;;;5039283;28;20479;-83
2021/12/05 16:20:25;;;;;;;782.60;739.57;;;4.30;99.90;;;;;;5039490;28;20456;-83
2021/12/05 16:23:11;;;;;;;777.87;736.90;;;4.40;99.90;;;;;;5039043;28;20455;-83
2021/12/05 16:25:42;;;;;;;759.13;720.30;;;4.40;99.90;;;;;;5040591;28;20459;-84
2021/12/05 16:28:12;;;;;;;764.93;725.13;;;4.40;99.90;;;;;;5038356;28;21018;-83
2021/12/05 16:30:43;;;;;;;797.17;752.50;;;4.40;99.90;;;;;;5038849;28;20555;-83
2021/12/05 16:33:13;;;;;;;797.97;753.30;;;4.40;99.90;;;;;;5039154;28;20451;-84
2021/12/05 16:35:43;;;;;;;793.47;748.30;;;4.50;99.90;;;;;;5038051;28;20872;-83
2021/12/05 16:38:21;;;;;;;799.10;754.30;;;4.40;99.90;;;;;;5037924;28;20480;-83
2021/12/05 16:40:58;;;;;;;802.73;755.83;;;4.40;99.90;;;;;;5038970;28;20460;-83
2021/12/05 16:43:25;;;;;;;827.33;777.27;;;4.30;99.90;;;;;;5041468;28;20455;-84
2021/12/05 16:45:56;;;;;;;810.57;761.97;;;4.40;99.90;;;;;;5039477;28;20809;-84
2021/12/05 16:48:25;;;;;;;803.60;755.63;;;4.40;99.90;;;;;;5039136;28;20472;-83
2021/12/05 16:50:51;;;;;;;793.37;748.27;;;4.40;99.90;;;;;;5038191;28;20448;-83
2021/12/05 16:53:33;;;;;;;793.67;748.37;;;4.40;99.90;;;;;;5037633;28;20463;-84
2021/12/05 16:56:01;;;;;;;793.57;747.50;;;4.40;99.90;;;;;;5037928;28;20452;-83